Terminal Aerodrome Forecast
Issued by NWS Cleveland, OH

Home | Current Version | Previous Version | Graphics & Text | Print | Product List | Glossary On
Versions: 1 2 3 4 5 6 7 8 9 10 11 12 13 14 15 16 17 18
000
FTUS41 KCLE 281100
TAFCAK
TAF
KCAK 281124Z 2812/2912 10002KT P6SM FEW150 BKN250
     FM281600 16003KT P6SM FEW045 BKN250
     FM290000 VRB02KT P6SM SCT200
     FM290900 00000KT 3SM BR SCT200=

USA.gov is the U.S. government's official web portal to all federal, state and local government web resources and services.